sensor_id;sensor_type;location;lat;lon;timestamp;temperature;humidity
24162;DHT22;12318;51.262;7.066;2022-11-20T00:01:16;2.20;99.90
24162;DHT22;12318;51.262;7.066;2022-11-20T00:03:42;2.10;99.90
24162;DHT22;12318;51.262;7.066;2022-11-20T00:06:10;2.10;99.90
24162;DHT22;12318;51.262;7.066;2022-11-20T00:08:37;2.20;99.90
24162;DHT22;12318;51.262;7.066;2022-11-20T00:11:14;2.20;99.90
24162;DHT22;12318;51.262;7.066;2022-11-20T00:13:41;2.20;99.90
24162;DHT22;12318;51.262;7.066;2022-11-20T00:16:09;2.20;99.90
24162;DHT22;12318;51.262;7.066;2022-11-20T00:18:35;2.20;99.90
24162;DHT22;12318;51.262;7.066;2022-11-20T00:21:03;2.20;99.90
24162;DHT22;12318;51.262;7.066;2022-11-20T00:23:30;2.20;99.90
24162;DHT22;12318;51.262;7.066;2022-11-20T00:25:56;2.20;99.90
24162;DHT22;12318;51.262;7.066;2022-11-20T00:28:22;2.30;99.90
24162;DHT22;12318;51.262;7.066;2022-11-20T00:30:47;2.30;99.90
24162;DHT22;12318;51.262;7.066;2022-11-20T00:33:13;2.30;99.90
24162;DHT22;12318;51.262;7.066;2022-11-20T00:35:39;2.40;99.90
24162;DHT22;12318;51.262;7.066;2022-11-20T00:38:05;2.50;99.90
24162;DHT22;12318;51.262;7.066;2022-11-20T00:40:30;2.40;99.90
24162;DHT22;12318;51.262;7.066;2022-11-20T00:42:56;2.30;99.90
24162;DHT22;12318;51.262;7.066;2022-11-20T00:45:22;2.40;99.90
24162;DHT22;12318;51.262;7.066;2022-11-20T00:47:48;2.40;99.90
24162;DHT22;12318;51.262;7.066;2022-11-20T00:50:13;2.40;99.90
24162;DHT22;12318;51.262;7.066;2022-11-20T00:52:39;2.40;99.90
24162;DHT22;12318;51.262;7.066;2022-11-20T00:55:05;2.40;99.90
24162;DHT22;12318;51.262;7.066;2022-11-20T00:57:31;2.50;99.90
24162;DHT22;12318;51.262;7.066;2022-11-20T00:59:57;2.60;99.90
24162;DHT22;12318;51.262;7.066;2022-11-20T01:02:23;2.60;99.90
24162;DHT22;12318;51.262;7.066;2022-11-20T01:04:48;2.70;99.90
24162;DHT22;12318;51.262;7.066;2022-11-20T01:07:15;2.80;99.90
24162;DHT22;12318;51.262;7.066;2022-11-20T01:09:40;2.90;99.90
24162;DHT22;12318;51.262;7.066;2022-11-20T01:12:06;2.90;99.90
24162;DHT22;12318;51.262;7.066;2022-11-20T01:14:32;2.70;99.90
24162;DHT22;12318;51.262;7.066;2022-11-20T01:16:57;2.70;99.90
24162;DHT22;12318;51.262;7.066;2022-11-20T01:19:23;2.50;99.90
24162;DHT22;12318;51.262;7.066;2022-11-20T01:21:52;2.40;99.90
24162;DHT22;12318;51.262;7.066;2022-11-20T01:24:19;2.40;99.90
24162;DHT22;12318;51.262;7.066;2022-11-20T01:26:47;2.40;99.90
24162;DHT22;12318;51.262;7.066;2022-11-20T01:29:16;2.40;99.90
24162;DHT22;12318;51.262;7.066;2022-11-20T01:31:43;2.40;99.90
24162;DHT22;12318;51.262;7.066;2022-11-20T01:34:16;2.40;99.90
24162;DHT22;12318;51.262;7.066;2022-11-20T01:36:43;2.40;99.90
24162;DHT22;12318;51.262;7.066;2022-11-20T01:39:17;2.50;99.90
24162;DHT22;12318;51.262;7.066;2022-11-20T01:41:45;2.50;99.90
24162;DHT22;12318;51.262;7.066;2022-11-20T01:44:49;2.40;99.90
24162;DHT22;12318;51.262;7.066;2022-11-20T01:47:45;2.40;99.90
24162;DHT22;12318;51.262;7.066;2022-11-20T01:50:18;2.60;99.90
24162;DHT22;12318;51.262;7.066;2022-11-20T01:52:56;2.70;99.90
24162;DHT22;12318;51.262;7.066;2022-11-20T01:55:28;2.80;99.90
24162;DHT22;12318;51.262;7.066;2022-11-20T01:57:56;2.70;99.90
24162;DHT22;12318;51.262;7.066;2022-11-20T02:00:22;2.70;99.90
24162;DHT22;12318;51.262;7.066;2022-11-20T02:02:51;2.70;99.90
24162;DHT22;12318;51.262;7.066;2022-11-20T02:08:09;2.80;99.90
24162;DHT22;12318;51.262;7.066;2022-11-20T02:10:35;2.80;99.90
24162;DHT22;12318;51.262;7.066;2022-11-20T02:13:01;2.70;99.90
24162;DHT22;12318;51.262;7.066;2022-11-20T02:15:46;2.70;99.90
24162;DHT22;12318;51.262;7.066;2022-11-20T02:18:14;2.90;99.90
24162;DHT22;12318;51.262;7.066;2022-11-20T02:20:45;2.90;99.90
24162;DHT22;12318;51.262;7.066;2022-11-20T02:26:01;2.90;99.90
24162;DHT22;12318;51.262;7.066;2022-11-20T02:28:28;2.80;99.90
24162;DHT22;12318;51.262;7.066;2022-11-20T02:30:54;2.70;99.90
24162;DHT22;12318;51.262;7.066;2022-11-20T02:33:20;2.70;99.90
24162;DHT22;12318;51.262;7.066;2022-11-20T02:35:46;2.70;99.90
24162;DHT22;12318;51.262;7.066;2022-11-20T02:38:13;2.70;99.90
24162;DHT22;12318;51.262;7.066;2022-11-20T02:40:39;2.60;99.90
24162;DHT22;12318;51.262;7.066;2022-11-20T02:43:04;2.70;99.90
24162;DHT22;12318;51.262;7.066;2022-11-20T02:45:30;2.60;99.90
24162;DHT22;12318;51.262;7.066;2022-11-20T02:47:57;2.50;99.90
24162;DHT22;12318;51.262;7.066;2022-11-20T02:50:22;2.50;99.90
24162;DHT22;12318;51.262;7.066;2022-11-20T02:52:48;2.40;99.90
24162;DHT22;12318;51.262;7.066;2022-11-20T02:55:14;2.40;99.90
24162;DHT22;12318;51.262;7.066;2022-11-20T02:57:40;2.50;99.90
24162;DHT22;12318;51.262;7.066;2022-11-20T03:00:08;2.60;99.90
24162;DHT22;12318;51.262;7.066;2022-11-20T03:02:34;2.60;99.90
24162;DHT22;12318;51.262;7.066;2022-11-20T03:05:00;2.70;99.90
24162;DHT22;12318;51.262;7.066;2022-11-20T03:07:26;2.70;99.90
24162;DHT22;12318;51.262;7.066;2022-11-20T03:09:52;2.50;99.90
24162;DHT22;12318;51.262;7.066;2022-11-20T03:12:18;2.50;99.90
24162;DHT22;12318;51.262;7.066;2022-11-20T03:14:43;2.60;99.90
24162;DHT22;12318;51.262;7.066;2022-11-20T03:17:09;2.60;99.90
24162;DHT22;12318;51.262;7.066;2022-11-20T03:19:35;2.60;99.90
24162;DHT22;12318;51.262;7.066;2022-11-20T03:22:01;2.70;99.90
24162;DHT22;12318;51.262;7.066;2022-11-20T03:24:27;2.90;99.90
24162;DHT22;12318;51.262;7.066;2022-11-20T03:26:52;3.00;99.90
24162;DHT22;12318;51.262;7.066;2022-11-20T03:29:18;3.00;99.90
24162;DHT22;12318;51.262;7.066;2022-11-20T03:31:44;3.00;99.90
24162;DHT22;12318;51.262;7.066;2022-11-20T03:34:11;3.00;99.90
24162;DHT22;12318;51.262;7.066;2022-11-20T03:36:43;2.80;99.90
24162;DHT22;12318;51.262;7.066;2022-11-20T03:39:09;2.70;99.90
24162;DHT22;12318;51.262;7.066;2022-11-20T03:41:40;2.70;99.90
24162;DHT22;12318;51.262;7.066;2022-11-20T03:44:08;2.80;99.90
24162;DHT22;12318;51.262;7.066;2022-11-20T03:46:35;2.90;99.90
24162;DHT22;12318;51.262;7.066;2022-11-20T03:49:01;2.80;99.90
24162;DHT22;12318;51.262;7.066;2022-11-20T03:51:29;3.00;99.90
24162;DHT22;12318;51.262;7.066;2022-11-20T03:53:57;3.00;99.90
24162;DHT22;12318;51.262;7.066;2022-11-20T03:56:26;3.10;99.90
24162;DHT22;12318;51.262;7.066;2022-11-20T03:58:52;3.10;99.90
24162;DHT22;12318;51.262;7.066;2022-11-20T04:01:20;3.10;99.90
24162;DHT22;12318;51.262;7.066;2022-11-20T04:03:47;3.10;99.90
24162;DHT22;12318;51.262;7.066;2022-11-20T04:06:16;3.00;99.90
24162;DHT22;12318;51.262;7.066;2022-11-20T04:08:42;3.10;99.90
24162;DHT22;12318;51.262;7.066;2022-11-20T04:11:27;3.20;99.90
24162;DHT22;12318;51.262;7.066;2022-11-20T04:13:56;3.30;99.90
24162;DHT22;12318;51.262;7.066;2022-11-20T04:16:25;3.30;99.90
24162;DHT22;12318;51.262;7.066;2022-11-20T04:18:58;3.20;99.90
24162;DHT22;12318;51.262;7.066;2022-11-20T04:21:25;3.20;99.90
24162;DHT22;12318;51.262;7.066;2022-11-20T04:23:51;3.10;99.90
24162;DHT22;12318;51.262;7.066;2022-11-20T04:26:22;3.10;99.90
24162;DHT22;12318;51.262;7.066;2022-11-20T04:28:48;3.00;99.90
24162;DHT22;12318;51.262;7.066;2022-11-20T04:31:19;3.10;99.90
24162;DHT22;12318;51.262;7.066;2022-11-20T04:33:46;3.00;99.90
24162;DHT22;12318;51.262;7.066;2022-11-20T04:36:14;3.00;99.90
24162;DHT22;12318;51.262;7.066;2022-11-20T04:38:40;3.10;99.90
24162;DHT22;12318;51.262;7.066;2022-11-20T04:41:11;3.10;99.90
24162;DHT22;12318;51.262;7.066;2022-11-20T04:43:38;3.20;99.90
24162;DHT22;12318;51.262;7.066;2022-11-20T04:46:04;3.20;99.90
24162;DHT22;12318;51.262;7.066;2022-11-20T04:48:30;3.10;99.90
24162;DHT22;12318;51.262;7.066;2022-11-20T04:50:56;3.20;99.90
24162;DHT22;12318;51.262;7.066;2022-11-20T04:53:23;3.00;99.90
24162;DHT22;12318;51.262;7.066;2022-11-20T04:55:49;3.00;99.90
24162;DHT22;12318;51.262;7.066;2022-11-20T04:58:15;2.90;99.90
24162;DHT22;12318;51.262;7.066;2022-11-20T05:00:41;3.00;99.90
24162;DHT22;12318;51.262;7.066;2022-11-20T05:03:07;2.90;99.90
24162;DHT22;12318;51.262;7.066;2022-11-20T05:05:36;3.00;99.90
24162;DHT22;12318;51.262;7.066;2022-11-20T05:08:01;3.00;99.90
24162;DHT22;12318;51.262;7.066;2022-11-20T05:10:27;2.90;99.90
24162;DHT22;12318;51.262;7.066;2022-11-20T05:12:53;2.90;99.90
24162;DHT22;12318;51.262;7.066;2022-11-20T05:15:19;3.00;99.90
24162;DHT22;12318;51.262;7.066;2022-11-20T05:17:49;3.00;99.90
24162;DHT22;12318;51.262;7.066;2022-11-20T05:20:15;3.10;99.90
24162;DHT22;12318;51.262;7.066;2022-11-20T05:22:40;3.00;99.90
24162;DHT22;12318;51.262;7.066;2022-11-20T05:25:06;3.00;99.90
24162;DHT22;12318;51.262;7.066;2022-11-20T05:27:32;2.90;99.90
24162;DHT22;12318;51.262;7.066;2022-11-20T05:29:58;2.90;99.90
24162;DHT22;12318;51.262;7.066;2022-11-20T05:32:24;3.00;99.90
24162;DHT22;12318;51.262;7.066;2022-11-20T05:34:51;3.00;99.90
24162;DHT22;12318;51.262;7.066;2022-11-20T05:37:17;3.00;99.90
24162;DHT22;12318;51.262;7.066;2022-11-20T05:39:43;2.80;99.90
24162;DHT22;12318;51.262;7.066;2022-11-20T05:42:09;2.90;99.90
24162;DHT22;12318;51.262;7.066;2022-11-20T05:44:53;2.90;99.90
24162;DHT22;12318;51.262;7.066;2022-11-20T05:47:19;3.00;99.90
24162;DHT22;12318;51.262;7.066;2022-11-20T05:49:44;2.80;99.90
24162;DHT22;12318;51.262;7.066;2022-11-20T05:52:10;2.90;99.90
24162;DHT22;12318;51.262;7.066;2022-11-20T05:54:36;2.90;99.90
24162;DHT22;12318;51.262;7.066;2022-11-20T05:57:02;2.80;99.90
24162;DHT22;12318;51.262;7.066;2022-11-20T05:59:28;2.80;99.90
24162;DHT22;12318;51.262;7.066;2022-11-20T06:01:53;2.80;99.90
24162;DHT22;12318;51.262;7.066;2022-11-20T06:04:19;2.90;99.90
24162;DHT22;12318;51.262;7.066;2022-11-20T06:06:45;2.90;99.90
24162;DHT22;12318;51.262;7.066;2022-11-20T06:09:11;2.80;99.90
24162;DHT22;12318;51.262;7.066;2022-11-20T06:11:36;2.70;99.90
24162;DHT22;12318;51.262;7.066;2022-11-20T06:14:02;2.80;99.90
24162;DHT22;12318;51.262;7.066;2022-11-20T06:16:28;2.80;99.90
24162;DHT22;12318;51.262;7.066;2022-11-20T06:18:54;3.00;99.90
24162;DHT22;12318;51.262;7.066;2022-11-20T06:21:21;2.90;99.90
24162;DHT22;12318;51.262;7.066;2022-11-20T06:23:49;3.00;99.90
24162;DHT22;12318;51.262;7.066;2022-11-20T06:26:24;3.00;99.90
24162;DHT22;12318;51.262;7.066;2022-11-20T06:28:51;3.10;99.90
24162;DHT22;12318;51.262;7.066;2022-11-20T06:31:20;3.10;99.90
24162;DHT22;12318;51.262;7.066;2022-11-20T06:33:46;3.20;99.90
24162;DHT22;12318;51.262;7.066;2022-11-20T06:36:14;3.20;99.90
24162;DHT22;12318;51.262;7.066;2022-11-20T06:38:41;3.10;99.90
24162;DHT22;12318;51.262;7.066;2022-11-20T06:41:10;3.10;99.90
24162;DHT22;12318;51.262;7.066;2022-11-20T06:43:39;3.10;99.90
24162;DHT22;12318;51.262;7.066;2022-11-20T06:46:05;3.10;99.90
24162;DHT22;12318;51.262;7.066;2022-11-20T06:48:31;3.00;99.90
24162;DHT22;12318;51.262;7.066;2022-11-20T06:50:58;2.90;99.90
24162;DHT22;12318;51.262;7.066;2022-11-20T06:53:24;2.90;99.90
24162;DHT22;12318;51.262;7.066;2022-11-20T06:55:51;3.00;99.90
24162;DHT22;12318;51.262;7.066;2022-11-20T06:58:17;3.00;99.90
24162;DHT22;12318;51.262;7.066;2022-11-20T07:00:44;3.00;99.90
24162;DHT22;12318;51.262;7.066;2022-11-20T07:03:11;2.90;99.90
24162;DHT22;12318;51.262;7.066;2022-11-20T07:05:37;2.90;99.90
24162;DHT22;12318;51.262;7.066;2022-11-20T07:08:04;3.00;99.90
24162;DHT22;12318;51.262;7.066;2022-11-20T07:10:30;3.00;99.90
24162;DHT22;12318;51.262;7.066;2022-11-20T07:12:56;3.00;99.90
24162;DHT22;12318;51.262;7.066;2022-11-20T07:15:23;3.10;99.90
24162;DHT22;12318;51.262;7.066;2022-11-20T07:17:49;3.10;99.90
24162;DHT22;12318;51.262;7.066;2022-11-20T07:20:15;3.10;99.90
24162;DHT22;12318;51.262;7.066;2022-11-20T07:22:41;3.20;99.90
24162;DHT22;12318;51.262;7.066;2022-11-20T07:25:08;3.10;99.90
24162;DHT22;12318;51.262;7.066;2022-11-20T07:27:34;3.10;99.90
24162;DHT22;12318;51.262;7.066;2022-11-20T07:30:01;3.00;99.90
24162;DHT22;12318;51.262;7.066;2022-11-20T07:32:27;3.10;99.90
24162;DHT22;12318;51.262;7.066;2022-11-20T07:34:52;3.20;99.90
24162;DHT22;12318;51.262;7.066;2022-11-20T07:37:18;2.90;99.90
24162;DHT22;12318;51.262;7.066;2022-11-20T07:39:44;3.00;99.90
24162;DHT22;12318;51.262;7.066;2022-11-20T07:42:10;3.10;99.90
24162;DHT22;12318;51.262;7.066;2022-11-20T07:44:37;3.00;99.90
24162;DHT22;12318;51.262;7.066;2022-11-20T07:47:04;2.90;99.90
24162;DHT22;12318;51.262;7.066;2022-11-20T07:49:29;2.80;99.90
24162;DHT22;12318;51.262;7.066;2022-11-20T07:51:55;2.80;99.90
24162;DHT22;12318;51.262;7.066;2022-11-20T07:54:22;2.80;99.90
24162;DHT22;12318;51.262;7.066;2022-11-20T07:56:48;2.90;99.90
24162;DHT22;12318;51.262;7.066;2022-11-20T07:59:15;2.80;99.90
24162;DHT22;12318;51.262;7.066;2022-11-20T08:01:41;2.70;99.90
24162;DHT22;12318;51.262;7.066;2022-11-20T08:04:08;2.60;99.90
24162;DHT22;12318;51.262;7.066;2022-11-20T08:06:35;2.60;99.90
24162;DHT22;12318;51.262;7.066;2022-11-20T08:09:01;2.60;99.90
24162;DHT22;12318;51.262;7.066;2022-11-20T08:11:26;2.70;99.90
24162;DHT22;12318;51.262;7.066;2022-11-20T08:14:10;2.70;99.90
24162;DHT22;12318;51.262;7.066;2022-11-20T08:16:40;2.70;99.90
24162;DHT22;12318;51.262;7.066;2022-11-20T08:19:07;2.70;99.90
24162;DHT22;12318;51.262;7.066;2022-11-20T08:21:33;2.80;99.90
24162;DHT22;12318;51.262;7.066;2022-11-20T08:23:59;2.80;99.90
24162;DHT22;12318;51.262;7.066;2022-11-20T08:26:26;2.80;99.90
24162;DHT22;12318;51.262;7.066;2022-11-20T08:28:56;2.80;99.90
24162;DHT22;12318;51.262;7.066;2022-11-20T08:31:23;3.00;99.90
24162;DHT22;12318;51.262;7.066;2022-11-20T08:33:48;3.10;99.90
24162;DHT22;12318;51.262;7.066;2022-11-20T08:36:16;3.20;99.90
24162;DHT22;12318;51.262;7.066;2022-11-20T08:38:46;3.20;99.90
24162;DHT22;12318;51.262;7.066;2022-11-20T08:41:11;3.20;99.90
24162;DHT22;12318;51.262;7.066;2022-11-20T08:44:09;3.30;99.90
24162;DHT22;12318;51.262;7.066;2022-11-20T08:46:40;3.30;99.90
24162;DHT22;12318;51.262;7.066;2022-11-20T08:49:14;3.40;99.90
24162;DHT22;12318;51.262;7.066;2022-11-20T08:51:41;3.40;99.90
24162;DHT22;12318;51.262;7.066;2022-11-20T08:54:07;3.40;99.90
24162;DHT22;12318;51.262;7.066;2022-11-20T08:56:35;3.50;99.90
24162;DHT22;12318;51.262;7.066;2022-11-20T08:59:01;3.50;99.90
24162;DHT22;12318;51.262;7.066;2022-11-20T09:01:27;3.40;99.90
24162;DHT22;12318;51.262;7.066;2022-11-20T09:03:57;3.20;99.90
24162;DHT22;12318;51.262;7.066;2022-11-20T09:06:23;3.30;99.90
24162;DHT22;12318;51.262;7.066;2022-11-20T09:08:52;3.50;99.90
24162;DHT22;12318;51.262;7.066;2022-11-20T09:11:18;3.60;99.90
24162;DHT22;12318;51.262;7.066;2022-11-20T09:13:44;3.70;99.90
24162;DHT22;12318;51.262;7.066;2022-11-20T09:16:10;3.50;99.90
24162;DHT22;12318;51.262;7.066;2022-11-20T09:18:36;3.60;99.90
24162;DHT22;12318;51.262;7.066;2022-11-20T09:21:05;3.60;99.90
24162;DHT22;12318;51.262;7.066;2022-11-20T09:23:34;3.60;99.90
24162;DHT22;12318;51.262;7.066;2022-11-20T09:26:12;3.70;99.90
24162;DHT22;12318;51.262;7.066;2022-11-20T09:28:38;3.50;99.90
24162;DHT22;12318;51.262;7.066;2022-11-20T09:31:22;3.60;99.90
24162;DHT22;12318;51.262;7.066;2022-11-20T09:33:48;3.70;99.90
24162;DHT22;12318;51.262;7.066;2022-11-20T09:36:14;3.70;99.90
24162;DHT22;12318;51.262;7.066;2022-11-20T09:38:41;3.70;99.90
24162;DHT22;12318;51.262;7.066;2022-11-20T09:47:15;3.50;99.90
24162;DHT22;12318;51.262;7.066;2022-11-20T09:54:55;3.70;99.90
24162;DHT22;12318;51.262;7.066;2022-11-20T09:57:25;3.60;99.90
24162;DHT22;12318;51.262;7.066;2022-11-20T10:00:00;3.60;99.90
24162;DHT22;12318;51.262;7.066;2022-11-20T10:07:58;3.80;99.90
24162;DHT22;12318;51.262;7.066;2022-11-20T10:10:33;3.70;99.90
24162;DHT22;12318;51.262;7.066;2022-11-20T10:15:56;3.80;99.90
24162;DHT22;12318;51.262;7.066;2022-11-20T10:21:39;4.00;99.90
24162;DHT22;12318;51.262;7.066;2022-11-20T10:29:24;4.10;99.90
24162;DHT22;12318;51.262;7.066;2022-11-20T10:32:02;3.90;99.90
24162;DHT22;12318;51.262;7.066;2022-11-20T10:35:18;3.80;99.90
24162;DHT22;12318;51.262;7.066;2022-11-20T10:37:25;3.90;99.90
24162;DHT22;12318;51.262;7.066;2022-11-20T10:42:36;3.80;99.90
24162;DHT22;12318;51.262;7.066;2022-11-20T10:47:42;3.70;99.90
24162;DHT22;12318;51.262;7.066;2022-11-20T10:50:13;3.80;99.90
24162;DHT22;12318;51.262;7.066;2022-11-20T10:55:30;3.80;99.90
24162;DHT22;12318;51.262;7.066;2022-11-20T10:58:08;3.80;99.90
24162;DHT22;12318;51.262;7.066;2022-11-20T11:00:35;3.90;99.90
24162;DHT22;12318;51.262;7.066;2022-11-20T11:03:01;3.80;99.90
24162;DHT22;12318;51.262;7.066;2022-11-20T11:07:56;4.00;99.90
24162;DHT22;12318;51.262;7.066;2022-11-20T11:13:07;4.30;99.90
24162;DHT22;12318;51.262;7.066;2022-11-20T11:15:39;4.20;99.90
24162;DHT22;12318;51.262;7.066;2022-11-20T11:18:11;4.10;99.90
24162;DHT22;12318;51.262;7.066;2022-11-20T11:20:50;4.20;99.90
24162;DHT22;12318;51.262;7.066;2022-11-20T11:23:35;4.30;99.90
24162;DHT22;12318;51.262;7.066;2022-11-20T11:26:04;4.30;99.90
24162;DHT22;12318;51.262;7.066;2022-11-20T11:28:30;4.10;99.90
24162;DHT22;12318;51.262;7.066;2022-11-20T11:30:56;4.10;99.90
24162;DHT22;12318;51.262;7.066;2022-11-20T11:33:27;4.20;99.90
24162;DHT22;12318;51.262;7.066;2022-11-20T11:36:01;4.30;99.90
24162;DHT22;12318;51.262;7.066;2022-11-20T11:38:32;4.40;99.90
24162;DHT22;12318;51.262;7.066;2022-11-20T11:41:00;4.40;99.90
24162;DHT22;12318;51.262;7.066;2022-11-20T11:43:29;4.00;99.90
24162;DHT22;12318;51.262;7.066;2022-11-20T11:49:00;4.30;99.90
24162;DHT22;12318;51.262;7.066;2022-11-20T11:51:35;4.20;99.90
24162;DHT22;12318;51.262;7.066;2022-11-20T11:54:05;4.10;99.90
24162;DHT22;12318;51.262;7.066;2022-11-20T11:56:38;4.20;99.90
24162;DHT22;12318;51.262;7.066;2022-11-20T11:59:06;4.20;99.90
24162;DHT22;12318;51.262;7.066;2022-11-20T12:01:48;4.20;99.90
24162;DHT22;12318;51.262;7.066;2022-11-20T12:06:48;4.20;99.90
24162;DHT22;12318;51.262;7.066;2022-11-20T12:09:18;4.20;99.90
24162;DHT22;12318;51.262;7.066;2022-11-20T12:11:53;4.20;99.90
24162;DHT22;12318;51.262;7.066;2022-11-20T12:14:31;4.20;99.90
24162;DHT22;12318;51.262;7.066;2022-11-20T12:17:00;4.20;99.90
24162;DHT22;12318;51.262;7.066;2022-11-20T12:19:29;4.50;99.90
24162;DHT22;12318;51.262;7.066;2022-11-20T12:22:31;4.30;99.90
24162;DHT22;12318;51.262;7.066;2022-11-20T12:30:27;4.10;99.90
24162;DHT22;12318;51.262;7.066;2022-11-20T12:33:06;4.10;99.90
24162;DHT22;12318;51.262;7.066;2022-11-20T12:44:40;4.30;99.90
24162;DHT22;12318;51.262;7.066;2022-11-20T12:53:10;4.10;99.90
24162;DHT22;12318;51.262;7.066;2022-11-20T12:55:52;4.10;99.90
24162;DHT22;12318;51.262;7.066;2022-11-20T12:58:40;4.10;99.90
24162;DHT22;12318;51.262;7.066;2022-11-20T13:04:37;4.10;99.90
24162;DHT22;12318;51.262;7.066;2022-11-20T13:07:13;4.30;99.90
24162;DHT22;12318;51.262;7.066;2022-11-20T13:09:46;4.30;99.90
24162;DHT22;12318;51.262;7.066;2022-11-20T13:12:29;4.30;99.90
24162;DHT22;12318;51.262;7.066;2022-11-20T13:18:02;4.20;99.90
24162;DHT22;12318;51.262;7.066;2022-11-20T13:20:30;4.40;99.90
24162;DHT22;12318;51.262;7.066;2022-11-20T13:22:57;4.20;99.90
24162;DHT22;12318;51.262;7.066;2022-11-20T13:25:37;4.30;99.90
24162;DHT22;12318;51.262;7.066;2022-11-20T13:30:36;4.50;99.90
24162;DHT22;12318;51.262;7.066;2022-11-20T13:33:08;4.30;99.90
24162;DHT22;12318;51.262;7.066;2022-11-20T13:35:41;4.40;99.90
24162;DHT22;12318;51.262;7.066;2022-11-20T13:38:13;4.60;99.90
24162;DHT22;12318;51.262;7.066;2022-11-20T13:40:57;4.70;99.90
24162;DHT22;12318;51.262;7.066;2022-11-20T13:43:41;4.80;99.90
24162;DHT22;12318;51.262;7.066;2022-11-20T13:46:09;4.90;99.90
24162;DHT22;12318;51.262;7.066;2022-11-20T13:48:45;4.60;99.90
24162;DHT22;12318;51.262;7.066;2022-11-20T13:51:40;4.60;99.90
24162;DHT22;12318;51.262;7.066;2022-11-20T13:54:30;4.60;99.90
24162;DHT22;12318;51.262;7.066;2022-11-20T14:02:26;4.60;99.90
24162;DHT22;12318;51.262;7.066;2022-11-20T14:04:59;4.50;99.90
24162;DHT22;12318;51.262;7.066;2022-11-20T14:07:34;4.60;99.90
24162;DHT22;12318;51.262;7.066;2022-11-20T14:10:00;4.50;99.90
24162;DHT22;12318;51.262;7.066;2022-11-20T14:12:32;4.40;99.90
24162;DHT22;12318;51.262;7.066;2022-11-20T14:14:58;4.30;99.90
24162;DHT22;12318;51.262;7.066;2022-11-20T14:17:31;4.30;99.90
24162;DHT22;12318;51.262;7.066;2022-11-20T14:20:12;4.40;99.90
24162;DHT22;12318;51.262;7.066;2022-11-20T14:22:39;4.40;99.90
24162;DHT22;12318;51.262;7.066;2022-11-20T14:27:43;4.50;99.90
24162;DHT22;12318;51.262;7.066;2022-11-20T14:30:20;4.30;99.90
24162;DHT22;12318;51.262;7.066;2022-11-20T14:32:47;4.40;99.90
24162;DHT22;12318;51.262;7.066;2022-11-20T14:35:37;4.40;99.90
24162;DHT22;12318;51.262;7.066;2022-11-20T14:38:15;4.40;99.90
24162;DHT22;12318;51.262;7.066;2022-11-20T14:40:41;4.40;99.90
24162;DHT22;12318;51.262;7.066;2022-11-20T14:45:58;4.40;99.90
24162;DHT22;12318;51.262;7.066;2022-11-20T14:48:30;4.40;99.90
24162;DHT22;12318;51.262;7.066;2022-11-20T14:50:57;4.50;99.90
24162;DHT22;12318;51.262;7.066;2022-11-20T14:53:24;4.40;99.90
24162;DHT22;12318;51.262;7.066;2022-11-20T14:55:59;4.40;99.90
24162;DHT22;12318;51.262;7.066;2022-11-20T14:58:27;4.40;99.90
24162;DHT22;12318;51.262;7.066;2022-11-20T15:00:58;4.40;99.90
24162;DHT22;12318;51.262;7.066;2022-11-20T15:03:40;4.40;99.90
24162;DHT22;12318;51.262;7.066;2022-11-20T15:06:07;4.50;99.90
24162;DHT22;12318;51.262;7.066;2022-11-20T15:08:35;4.50;99.90
24162;DHT22;12318;51.262;7.066;2022-11-20T15:11:01;4.50;99.90
24162;DHT22;12318;51.262;7.066;2022-11-20T15:13:36;4.60;99.90
24162;DHT22;12318;51.262;7.066;2022-11-20T15:16:04;4.60;99.90
24162;DHT22;12318;51.262;7.066;2022-11-20T15:18:39;4.50;99.90
24162;DHT22;12318;51.262;7.066;2022-11-20T15:21:18;4.60;99.90
24162;DHT22;12318;51.262;7.066;2022-11-20T15:23:44;4.60;99.90
24162;DHT22;12318;51.262;7.066;2022-11-20T15:26:12;4.60;99.90
24162;DHT22;12318;51.262;7.066;2022-11-20T15:28:44;4.60;99.90
24162;DHT22;12318;51.262;7.066;2022-11-20T15:31:14;4.60;99.90
24162;DHT22;12318;51.262;7.066;2022-11-20T15:33:40;4.70;99.90
24162;DHT22;12318;51.262;7.066;2022-11-20T15:36:09;4.70;99.90
24162;DHT22;12318;51.262;7.066;2022-11-20T15:38:34;4.70;99.90
24162;DHT22;12318;51.262;7.066;2022-11-20T15:41:00;4.60;99.90
24162;DHT22;12318;51.262;7.066;2022-11-20T15:43:26;4.70;99.90
24162;DHT22;12318;51.262;7.066;2022-11-20T15:46:14;4.60;99.90
24162;DHT22;12318;51.262;7.066;2022-11-20T15:48:51;4.70;99.90
24162;DHT22;12318;51.262;7.066;2022-11-20T15:51:33;4.80;99.90
24162;DHT22;12318;51.262;7.066;2022-11-20T15:53:59;4.70;99.90
24162;DHT22;12318;51.262;7.066;2022-11-20T15:56:26;4.70;99.90
24162;DHT22;12318;51.262;7.066;2022-11-20T15:58:52;4.80;99.90
24162;DHT22;12318;51.262;7.066;2022-11-20T16:01:19;4.80;99.90
24162;DHT22;12318;51.262;7.066;2022-11-20T16:03:46;4.90;99.90
24162;DHT22;12318;51.262;7.066;2022-11-20T16:06:12;5.10;99.90
24162;DHT22;12318;51.262;7.066;2022-11-20T16:08:38;5.10;99.90
24162;DHT22;12318;51.262;7.066;2022-11-20T16:11:04;5.10;99.90
24162;DHT22;12318;51.262;7.066;2022-11-20T16:13:31;5.10;99.90
24162;DHT22;12318;51.262;7.066;2022-11-20T16:16:25;5.20;99.90
24162;DHT22;12318;51.262;7.066;2022-11-20T16:18:53;5.30;99.90
24162;DHT22;12318;51.262;7.066;2022-11-20T16:21:19;5.30;99.90
24162;DHT22;12318;51.262;7.066;2022-11-20T16:23:45;5.20;99.90
24162;DHT22;12318;51.262;7.066;2022-11-20T16:26:15;5.10;99.90
24162;DHT22;12318;51.262;7.066;2022-11-20T16:28:42;5.00;99.90
24162;DHT22;12318;51.262;7.066;2022-11-20T16:31:12;5.00;99.90
24162;DHT22;12318;51.262;7.066;2022-11-20T16:33:38;4.90;99.90
24162;DHT22;12318;51.262;7.066;2022-11-20T16:36:11;4.90;99.90
24162;DHT22;12318;51.262;7.066;2022-11-20T16:38:37;4.90;99.90
24162;DHT22;12318;51.262;7.066;2022-11-20T16:41:04;4.80;99.90
24162;DHT22;12318;51.262;7.066;2022-11-20T16:43:30;4.90;99.90
24162;DHT22;12318;51.262;7.066;2022-11-20T16:45:56;4.80;99.90
24162;DHT22;12318;51.262;7.066;2022-11-20T16:48:22;4.80;99.90
24162;DHT22;12318;51.262;7.066;2022-11-20T16:50:50;4.90;99.90
24162;DHT22;12318;51.262;7.066;2022-11-20T16:53:20;4.90;99.90
24162;DHT22;12318;51.262;7.066;2022-11-20T16:55:46;4.90;99.90
24162;DHT22;12318;51.262;7.066;2022-11-20T16:58:13;5.00;99.90
24162;DHT22;12318;51.262;7.066;2022-11-20T17:00:40;5.00;99.90
24162;DHT22;12318;51.262;7.066;2022-11-20T17:03:06;4.90;99.90
24162;DHT22;12318;51.262;7.066;2022-11-20T17:05:33;4.80;99.90
24162;DHT22;12318;51.262;7.066;2022-11-20T17:08:00;4.90;99.90
24162;DHT22;12318;51.262;7.066;2022-11-20T17:10:27;4.90;99.90
24162;DHT22;12318;51.262;7.066;2022-11-20T17:12:53;4.90;99.90
24162;DHT22;12318;51.262;7.066;2022-11-20T17:15:19;4.90;99.90
24162;DHT22;12318;51.262;7.066;2022-11-20T17:17:45;5.00;99.90
24162;DHT22;12318;51.262;7.066;2022-11-20T17:20:11;5.00;99.90
24162;DHT22;12318;51.262;7.066;2022-11-20T17:22:37;5.00;99.90
24162;DHT22;12318;51.262;7.066;2022-11-20T17:25:03;5.10;99.90
24162;DHT22;12318;51.262;7.066;2022-11-20T17:27:30;5.30;99.90
24162;DHT22;12318;51.262;7.066;2022-11-20T17:29:56;5.40;99.90